createdAt,value
2023-06-23T00:00:27.495Z,20.04
2023-06-23T00:02:55.958Z,20.06
2023-06-23T00:05:24.874Z,20.02
2023-06-23T00:07:53.335Z,19.96
2023-06-23T00:10:21.884Z,19.95
2023-06-23T00:12:51.132Z,19.99
2023-06-23T00:15:21.088Z,19.97
2023-06-23T00:17:51.587Z,20.01
2023-06-23T00:20:20.575Z,20.02
2023-06-23T00:22:49.041Z,20.05
2023-06-23T00:25:17.537Z,20.08
2023-06-23T00:27:46.573Z,20.08
2023-06-23T00:30:16.792Z,20.00
2023-06-23T00:32:46.786Z,19.97
2023-06-23T00:35:15.809Z,19.94
2023-06-23T00:37:45.661Z,19.93
2023-06-23T00:40:14.719Z,19.93
2023-06-23T00:42:47.294Z,19.98
2023-06-23T00:45:15.960Z,20.06
2023-06-23T00:47:46.477Z,20.05
2023-06-23T00:50:18.295Z,20.14
2023-06-23T00:52:52.819Z,20.12
2023-06-23T00:55:22.257Z,20.13
2023-06-23T00:57:51.962Z,20.19
2023-06-23T01:00:21.463Z,20.15
2023-06-23T01:02:53.454Z,20.16
2023-06-23T01:05:26.303Z,20.15
2023-06-23T01:08:06.194Z,20.28
2023-06-23T01:10:38.210Z,20.17
2023-06-23T01:13:22.244Z,20.08
2023-06-23T01:15:56.179Z,20.05
2023-06-23T01:18:41.889Z,20.07
2023-06-23T01:21:15.043Z,20.03
2023-06-23T01:24:06.837Z,20.03
2023-06-23T01:26:57.818Z,19.96
2023-06-23T01:29:31.364Z,19.91
2023-06-23T01:32:04.341Z,19.94
2023-06-23T01:34:41.179Z,19.97
2023-06-23T01:37:13.200Z,19.94
2023-06-23T01:39:45.735Z,19.89
2023-06-23T01:42:18.428Z,19.85
2023-06-23T01:44:51.974Z,19.90
2023-06-23T01:47:23.443Z,19.92
2023-06-23T01:49:53.122Z,19.88
2023-06-23T01:52:22.444Z,19.80
2023-06-23T01:54:52.633Z,19.75
2023-06-23T01:57:23.044Z,19.76
2023-06-23T01:59:55.087Z,19.76
2023-06-23T02:02:25.819Z,19.77
2023-06-23T02:04:56.788Z,19.78
2023-06-23T02:07:26.362Z,19.79
2023-06-23T02:09:57.463Z,19.85
2023-06-23T02:12:26.083Z,19.86
2023-06-23T02:14:56.160Z,19.92
2023-06-23T02:17:26.601Z,20.01
2023-06-23T02:19:56.923Z,20.03
2023-06-23T02:22:28.623Z,20.03
2023-06-23T02:24:58.510Z,20.04
2023-06-23T02:27:28.248Z,20.05
2023-06-23T02:29:59.668Z,19.94
2023-06-23T02:32:28.080Z,20.03
2023-06-23T02:34:56.655Z,20.00
2023-06-23T02:37:27.517Z,19.97
2023-06-23T02:39:59.832Z,20.06
2023-06-23T02:42:35.758Z,20.01
2023-06-23T02:45:11.140Z,19.96
2023-06-23T02:47:42.422Z,19.95
2023-06-23T02:50:14.426Z,19.97
2023-06-23T02:52:47.284Z,20.10
2023-06-23T02:55:21.116Z,20.34
2023-06-23T02:57:52.150Z,20.49
2023-06-23T03:00:24.523Z,20.59
2023-06-23T03:02:58.517Z,20.67
2023-06-23T03:05:27.919Z,20.77
2023-06-23T03:07:56.682Z,20.82
2023-06-23T03:10:25.141Z,20.81
2023-06-23T03:12:53.960Z,20.96
2023-06-23T03:15:23.864Z,21.45
2023-06-23T03:17:57.530Z,21.89
2023-06-23T03:20:31.235Z,22.01
2023-06-23T03:23:05.134Z,22.30
2023-06-23T03:25:34.362Z,23.08
2023-06-23T03:28:06.914Z,23.21
2023-06-23T03:30:41.984Z,23.65
2023-06-23T03:33:15.259Z,23.79
2023-06-23T03:35:44.893Z,23.18
2023-06-23T03:38:19.071Z,23.11
2023-06-23T03:40:53.226Z,23.52
2023-06-23T03:43:29.155Z,23.54
2023-06-23T03:46:19.591Z,23.87
2023-06-23T03:48:53.496Z,25.27
2023-06-23T03:51:25.317Z,26.27
2023-06-23T03:53:55.808Z,27.15
2023-06-23T03:56:26.263Z,28.64
2023-06-23T03:58:56.796Z,29.13
2023-06-23T04:01:29.143Z,28.83
2023-06-23T04:03:59.446Z,29.69
2023-06-23T04:06:30.090Z,29.48
2023-06-23T04:09:00.447Z,30.66
2023-06-23T04:11:30.146Z,31.55
2023-06-23T04:13:59.108Z,31.84
2023-06-23T04:16:31.015Z,31.63
2023-06-23T04:19:01.631Z,31.72
2023-06-23T04:21:32.529Z,29.87
2023-06-23T04:24:07.439Z,30.07
2023-06-23T04:26:37.207Z,29.19
2023-06-23T04:29:08.010Z,28.04
2023-06-23T04:31:39.461Z,28.24
2023-06-23T04:34:08.592Z,27.71
2023-06-23T04:37:01.074Z,27.20
2023-06-23T04:39:34.095Z,26.41
2023-06-23T04:42:06.950Z,26.53
2023-06-23T04:44:46.004Z,26.03
2023-06-23T04:47:19.931Z,26.37
2023-06-23T04:49:52.377Z,27.04
2023-06-23T04:52:22.968Z,28.80
2023-06-23T04:54:54.316Z,30.78
2023-06-23T04:57:26.899Z,31.97
2023-06-23T04:59:59.885Z,31.73
2023-06-23T05:02:33.713Z,30.93
2023-06-23T05:05:03.308Z,31.04
2023-06-23T05:07:33.219Z,31.49
2023-06-23T05:10:03.430Z,32.26
2023-06-23T05:12:33.549Z,33.86
2023-06-23T05:15:03.891Z,34.71
2023-06-23T05:17:36.916Z,35.13
2023-06-23T05:20:07.725Z,34.03
2023-06-23T05:22:38.301Z,35.51
2023-06-23T05:25:09.661Z,34.61
2023-06-23T05:27:40.459Z,35.40
2023-06-23T05:30:11.690Z,35.95
2023-06-23T05:32:44.684Z,36.80
2023-06-23T05:35:14.448Z,34.76
2023-06-23T05:37:45.036Z,32.52
2023-06-23T05:40:15.726Z,34.03
2023-06-23T05:42:44.999Z,35.40
2023-06-23T05:45:14.534Z,36.44
2023-06-23T05:47:52.304Z,37.22
2023-06-23T05:50:25.693Z,37.54
2023-06-23T05:53:00.652Z,37.21
2023-06-23T05:55:31.090Z,37.14
2023-06-23T05:58:05.873Z,36.85
2023-06-23T06:00:40.392Z,37.18
2023-06-23T06:03:15.956Z,36.36
2023-06-23T06:05:50.143Z,36.40
2023-06-23T06:08:19.095Z,37.04
2023-06-23T06:10:48.380Z,37.36
2023-06-23T06:13:19.233Z,37.71
2023-06-23T06:15:48.928Z,37.54
2023-06-23T06:18:23.888Z,37.39
2023-06-23T06:20:54.921Z,37.29
2023-06-23T06:23:26.288Z,36.81
2023-06-23T06:25:56.197Z,36.43
2023-06-23T06:28:26.598Z,36.89
2023-06-23T06:30:57.087Z,37.06
2023-06-23T06:33:27.798Z,36.13
2023-06-23T06:35:59.990Z,36.05
2023-06-23T06:38:30.985Z,36.38
2023-06-23T06:41:00.637Z,36.90
2023-06-23T06:43:29.129Z,36.96
2023-06-23T06:45:58.102Z,36.87
2023-06-23T06:48:29.038Z,36.67
2023-06-23T06:50:58.359Z,36.53
2023-06-23T06:53:27.675Z,36.51
2023-06-23T06:55:57.112Z,36.78
2023-06-23T06:58:26.102Z,36.40
2023-06-23T07:00:55.447Z,36.58
2023-06-23T07:03:24.874Z,36.21
2023-06-23T07:05:55.434Z,36.93
2023-06-23T07:08:24.276Z,37.39
2023-06-23T07:10:52.745Z,37.47
2023-06-23T07:13:21.091Z,35.69
2023-06-23T07:15:49.682Z,35.74
2023-06-23T07:18:18.063Z,36.98
2023-06-23T07:20:54.252Z,35.77
2023-06-23T07:23:24.838Z,36.86
2023-06-23T07:25:53.390Z,36.72
2023-06-23T07:28:21.875Z,37.11
2023-06-23T07:30:50.418Z,36.60
2023-06-23T07:33:18.960Z,36.32
2023-06-23T07:35:47.408Z,35.76
2023-06-23T07:38:15.685Z,36.51
2023-06-23T07:40:46.862Z,36.37
2023-06-23T07:43:15.576Z,36.65
2023-06-23T07:45:45.226Z,36.46
2023-06-23T07:48:13.787Z,36.21
2023-06-23T07:50:42.212Z,35.67
2023-06-23T07:53:10.681Z,34.92
2023-06-23T07:55:39.026Z,35.26
2023-06-23T07:58:08.793Z,34.89
2023-06-23T08:00:37.245Z,34.30
2023-06-23T08:03:06.426Z,34.11
2023-06-23T08:05:35.237Z,34.65
2023-06-23T08:08:03.856Z,35.08
2023-06-23T08:10:32.368Z,34.61
2023-06-23T08:13:01.172Z,34.05
2023-06-23T08:15:31.863Z,33.62
2023-06-23T08:18:00.632Z,32.92
2023-06-23T08:20:30.146Z,32.10
2023-06-23T08:22:58.999Z,31.12
2023-06-23T08:25:27.584Z,30.21
2023-06-23T08:27:57.350Z,29.55
2023-06-23T08:30:33.163Z,29.21
2023-06-23T08:33:01.837Z,28.37
2023-06-23T08:35:30.664Z,28.27
2023-06-23T08:37:59.183Z,28.19
2023-06-23T08:40:27.644Z,28.25
2023-06-23T08:42:58.474Z,28.31
2023-06-23T08:45:27.570Z,28.11
2023-06-23T08:48:03.365Z,27.86
2023-06-23T08:50:33.095Z,27.93
2023-06-23T08:53:02.079Z,28.12
2023-06-23T08:55:30.951Z,28.04
2023-06-23T08:58:01.663Z,26.69
2023-06-23T09:00:31.731Z,27.43
2023-06-23T09:03:02.615Z,27.63
2023-06-23T09:05:31.395Z,27.69
2023-06-23T09:08:02.445Z,27.57
2023-06-23T09:10:31.595Z,27.82
2023-06-23T09:13:18.905Z,27.96
2023-06-23T09:18:21.481Z,27.77
2023-06-23T09:20:51.858Z,27.99
2023-06-23T09:23:22.687Z,28.03
2023-06-23T09:25:52.643Z,27.90
2023-06-23T09:28:29.995Z,27.82
2023-06-23T09:30:59.930Z,27.82
2023-06-23T09:33:30.797Z,28.04
2023-06-23T09:35:59.217Z,27.97
2023-06-23T09:38:29.870Z,27.91
2023-06-23T09:41:13.717Z,28.05
2023-06-23T09:43:43.524Z,27.84
2023-06-23T09:46:13.754Z,28.10
2023-06-23T09:48:45.735Z,27.98
2023-06-23T09:51:20.354Z,28.01
2023-06-23T09:53:50.153Z,27.72
2023-06-23T09:56:20.421Z,27.98
2023-06-23T09:58:52.041Z,27.77
2023-06-23T10:01:22.089Z,27.66
2023-06-23T10:03:54.179Z,27.77
2023-06-23T10:06:25.180Z,27.83
2023-06-23T10:08:58.858Z,27.97
2023-06-23T10:11:34.768Z,27.80
2023-06-23T10:14:06.992Z,27.66
2023-06-23T10:16:36.366Z,27.87
2023-06-23T10:19:06.589Z,27.71
2023-06-23T10:21:35.677Z,27.82
2023-06-23T10:24:06.297Z,27.73
2023-06-23T10:26:36.340Z,27.91
2023-06-23T10:29:08.410Z,27.98
2023-06-23T10:31:40.146Z,28.07
2023-06-23T10:34:15.097Z,27.35
2023-06-23T10:36:45.093Z,27.06
2023-06-23T10:39:15.410Z,27.00
2023-06-23T10:41:47.234Z,27.48
2023-06-23T10:44:18.197Z,27.54
2023-06-23T10:46:47.367Z,27.66
2023-06-23T10:49:21.824Z,27.67
2023-06-23T10:51:52.457Z,27.97
2023-06-23T10:54:29.132Z,27.95
2023-06-23T10:56:57.624Z,27.82
2023-06-23T10:59:28.064Z,27.72
2023-06-23T11:02:19.011Z,27.49
2023-06-23T11:04:57.819Z,27.62
2023-06-23T11:07:27.052Z,27.77
2023-06-23T11:10:07.691Z,27.59
2023-06-23T11:12:44.179Z,27.67
2023-06-23T11:15:17.268Z,27.74
2023-06-23T11:17:47.424Z,27.67
2023-06-23T11:20:31.842Z,27.66
2023-06-23T11:23:02.727Z,27.55
2023-06-23T11:25:33.115Z,27.68
2023-06-23T11:28:41.065Z,27.73
2023-06-23T11:31:14.506Z,27.70
2023-06-23T11:33:44.269Z,27.55
2023-06-23T11:36:16.600Z,27.16
2023-06-23T11:38:46.820Z,27.33
2023-06-23T11:41:16.700Z,27.41
2023-06-23T11:43:46.878Z,27.31
2023-06-23T11:46:17.135Z,27.44
2023-06-23T11:48:46.915Z,27.57
2023-06-23T11:51:18.052Z,27.31
2023-06-23T11:53:47.478Z,27.31
2023-06-23T11:56:17.633Z,27.19
2023-06-23T11:58:52.853Z,27.40
2023-06-23T12:01:21.968Z,27.49
2023-06-23T12:03:51.322Z,27.49
2023-06-23T12:06:24.282Z,27.53
2023-06-23T12:08:53.925Z,27.60
2023-06-23T12:11:23.663Z,27.51
2023-06-23T12:13:54.195Z,27.61
2023-06-23T12:16:22.767Z,27.53
2023-06-23T12:18:54.980Z,27.27
2023-06-23T12:21:30.118Z,27.37
2023-06-23T12:24:02.796Z,27.35
2023-06-23T12:26:32.127Z,27.53
2023-06-23T12:29:11.183Z,27.53
2023-06-23T12:31:41.443Z,27.41
2023-06-23T12:34:16.629Z,27.29
2023-06-23T12:36:51.903Z,27.27
2023-06-23T12:39:25.189Z,27.39
2023-06-23T12:41:54.848Z,27.31
2023-06-23T12:44:24.079Z,27.37
2023-06-23T12:46:52.658Z,27.37
2023-06-23T12:49:23.010Z,27.11
2023-06-23T12:51:53.608Z,26.87
2023-06-23T12:54:23.660Z,26.77
2023-06-23T12:56:52.138Z,26.83
2023-06-23T12:59:21.263Z,26.93
2023-06-23T13:01:51.857Z,27.01
2023-06-23T13:04:20.414Z,27.10
2023-06-23T13:06:49.009Z,27.08
2023-06-23T13:09:21.374Z,27.06
2023-06-23T13:11:49.845Z,27.12
2023-06-23T13:14:19.114Z,26.81
2023-06-23T13:16:48.830Z,26.62
2023-06-23T13:19:17.931Z,26.55
2023-06-23T13:21:48.558Z,26.59
2023-06-23T13:24:19.045Z,26.32
2023-06-23T13:26:51.011Z,26.23
2023-06-23T13:29:19.382Z,26.12
2023-06-23T13:31:47.777Z,26.04
2023-06-23T13:34:16.360Z,26.02
2023-06-23T13:36:44.875Z,26.13
2023-06-23T13:39:13.755Z,26.09
2023-06-23T13:41:43.593Z,26.08
2023-06-23T13:44:14.698Z,25.72
2023-06-23T13:46:43.161Z,25.64
2023-06-23T13:49:13.622Z,25.71
2023-06-23T13:51:42.454Z,25.73
2023-06-23T13:54:10.838Z,25.67
2023-06-23T13:56:39.434Z,25.57
2023-06-23T13:59:09.264Z,25.69
2023-06-23T14:01:37.898Z,25.71
2023-06-23T14:04:06.770Z,25.67
2023-06-23T14:06:35.313Z,25.56
2023-06-23T14:09:04.688Z,25.65
2023-06-23T14:11:33.185Z,25.35
2023-06-23T14:14:04.531Z,25.51
2023-06-23T14:16:36.002Z,25.44
2023-06-23T14:19:05.186Z,25.45
2023-06-23T14:24:46.730Z,25.34
2023-06-23T14:27:15.200Z,25.15
2023-06-23T14:29:43.630Z,25.13
2023-06-23T14:32:13.529Z,25.22
2023-06-23T14:34:42.704Z,25.29
2023-06-23T14:37:11.022Z,25.19
2023-06-23T14:39:39.438Z,25.07
2023-06-23T14:42:09.521Z,25.24
2023-06-23T14:44:38.105Z,25.20
2023-06-23T14:47:07.265Z,25.13
2023-06-23T14:49:37.187Z,25.24
2023-06-23T14:52:06.293Z,25.25
2023-06-23T14:54:34.833Z,25.25
2023-06-23T14:57:03.295Z,25.27
2023-06-23T14:59:32.040Z,25.32
2023-06-23T15:02:03.021Z,25.19
2023-06-23T15:04:31.656Z,25.18
2023-06-23T15:07:02.117Z,25.21
2023-06-23T15:09:30.949Z,25.20
2023-06-23T15:11:59.525Z,25.22
2023-06-23T15:14:29.295Z,25.11
2023-06-23T15:16:57.698Z,25.21
2023-06-23T15:19:34.016Z,25.15
2023-06-23T15:22:04.738Z,25.08
2023-06-23T15:24:33.100Z,25.21
2023-06-23T15:27:02.324Z,25.16
2023-06-23T15:29:30.914Z,25.09
2023-06-23T15:32:00.351Z,25.07
2023-06-23T15:34:31.177Z,25.07
2023-06-23T15:37:00.177Z,25.05
2023-06-23T15:39:32.614Z,24.97
2023-06-23T15:42:00.958Z,24.79
2023-06-23T15:44:29.517Z,24.87
2023-06-23T15:46:58.081Z,24.80
2023-06-23T15:49:27.089Z,24.82
2023-06-23T15:51:55.644Z,24.78
2023-06-23T15:54:24.396Z,24.85
2023-06-23T15:56:54.492Z,24.62
2023-06-23T15:59:22.961Z,24.75
2023-06-23T16:01:51.572Z,24.63
2023-06-23T16:04:20.350Z,24.62
2023-06-23T16:06:48.974Z,24.58
2023-06-23T16:09:17.530Z,24.37
2023-06-23T16:11:45.993Z,24.39
2023-06-23T16:14:16.092Z,24.29
2023-06-23T16:16:44.585Z,24.24
2023-06-23T16:19:12.999Z,24.17
2023-06-23T16:21:45.744Z,24.13
2023-06-23T16:24:15.382Z,23.99
2023-06-23T16:26:44.197Z,23.93
2023-06-23T16:29:12.585Z,23.83
2023-06-23T16:31:42.595Z,23.68
2023-06-23T16:34:10.960Z,23.60
2023-06-23T16:36:39.315Z,23.47
2023-06-23T16:39:09.452Z,23.48
2023-06-23T16:41:38.171Z,23.45
2023-06-23T16:44:06.960Z,23.33
2023-06-23T16:46:35.337Z,23.19
2023-06-23T16:49:05.510Z,23.18
2023-06-23T16:51:41.391Z,23.19
2023-06-23T16:54:10.365Z,23.24
2023-06-23T16:56:38.852Z,23.17
2023-06-23T16:59:08.783Z,23.06
2023-06-23T17:01:37.202Z,23.03
2023-06-23T17:04:07.374Z,22.83
2023-06-23T17:06:35.906Z,22.85
2023-06-23T17:09:04.316Z,22.77
2023-06-23T17:11:32.677Z,22.64
2023-06-23T17:14:01.037Z,22.65
2023-06-23T17:16:36.399Z,22.66
2023-06-23T17:19:04.772Z,22.63
2023-06-23T17:21:35.510Z,22.55
2023-06-23T17:24:03.931Z,22.46
2023-06-23T17:26:33.107Z,22.39
2023-06-23T17:29:01.492Z,22.34
2023-06-23T17:31:31.185Z,22.27
2023-06-23T17:33:59.866Z,22.27
2023-06-23T17:36:32.414Z,22.22
2023-06-23T17:39:02.164Z,22.22
2023-06-23T17:41:30.673Z,22.18
2023-06-23T17:43:59.298Z,22.12
2023-06-23T17:46:28.186Z,22.15
2023-06-23T17:48:57.077Z,22.08
2023-06-23T17:51:27.966Z,22.05
2023-06-23T17:53:56.907Z,21.98
2023-06-23T17:56:27.067Z,21.94
2023-06-23T17:58:56.121Z,21.91
2023-06-23T18:01:24.796Z,21.88
2023-06-23T18:03:54.079Z,21.85
2023-06-23T18:06:23.437Z,21.85
2023-06-23T18:08:52.547Z,21.85
2023-06-23T18:11:22.945Z,21.81
2023-06-23T18:13:53.299Z,21.77
2023-06-23T18:16:37.074Z,21.75
2023-06-23T18:19:05.492Z,21.71
2023-06-23T18:21:33.924Z,21.71
2023-06-23T18:24:02.404Z,21.65
2023-06-23T18:26:32.931Z,21.66
2023-06-23T18:29:02.818Z,21.66
2023-06-23T18:31:31.409Z,21.66
2023-06-23T18:34:00.008Z,21.64
2023-06-23T18:36:29.060Z,21.62
2023-06-23T18:38:57.536Z,21.58
2023-06-23T18:41:26.025Z,21.55
2023-06-23T18:43:54.465Z,21.55
2023-06-23T18:46:24.237Z,21.53
2023-06-23T18:48:52.635Z,21.52
2023-06-23T18:51:21.086Z,21.50
2023-06-23T18:53:49.401Z,21.49
2023-06-23T18:56:17.823Z,21.49
2023-06-23T18:58:49.906Z,21.48
2023-06-23T19:01:18.314Z,21.51
2023-06-23T19:03:50.694Z,21.50
2023-06-23T19:06:19.575Z,21.53
2023-06-23T19:08:48.132Z,21.47
2023-06-23T19:11:16.838Z,21.45
2023-06-23T19:13:45.368Z,21.45
2023-06-23T19:16:13.697Z,21.44
2023-06-23T19:18:42.135Z,21.46
2023-06-23T19:21:12.225Z,21.40
2023-06-23T19:23:40.775Z,21.40
2023-06-23T19:26:09.190Z,21.38
2023-06-23T19:28:37.640Z,21.37
2023-06-23T19:31:06.306Z,21.34
2023-06-23T19:33:34.960Z,21.34
2023-06-23T19:36:03.493Z,21.33
2023-06-23T19:38:33.492Z,21.28
2023-06-23T19:41:02.370Z,21.30
2023-06-23T19:43:30.726Z,21.30
2023-06-23T19:46:00.106Z,21.26
2023-06-23T19:48:35.817Z,21.29
2023-06-23T19:51:04.545Z,21.27
2023-06-23T19:53:34.420Z,21.25
2023-06-23T19:56:02.864Z,21.22
2023-06-23T19:58:31.158Z,21.22
2023-06-23T20:01:00.037Z,21.25
2023-06-23T20:03:28.453Z,21.27
2023-06-23T20:05:57.269Z,21.23
2023-06-23T20:08:25.828Z,21.25
2023-06-23T20:10:55.609Z,21.26
2023-06-23T20:13:24.326Z,21.22
2023-06-23T20:15:52.918Z,21.20
2023-06-23T20:18:21.504Z,21.21
2023-06-23T20:20:49.955Z,21.22
2023-06-23T20:23:18.347Z,21.23
2023-06-23T20:25:46.842Z,21.18
2023-06-23T20:28:16.772Z,21.17
2023-06-23T20:30:45.339Z,21.15
2023-06-23T20:33:13.684Z,21.11
2023-06-23T20:35:45.534Z,21.09
2023-06-23T20:38:14.173Z,21.06
2023-06-23T20:40:43.149Z,21.05
2023-06-23T20:43:12.108Z,21.03
2023-06-23T20:45:42.054Z,21.05
2023-06-23T20:48:10.516Z,21.04
2023-06-23T20:50:39.078Z,20.97
2023-06-23T20:53:07.473Z,20.87
2023-06-23T20:55:36.016Z,20.88
2023-06-23T20:58:04.572Z,20.87
2023-06-23T21:00:33.626Z,20.87
2023-06-23T21:03:05.688Z,20.91
2023-06-23T21:05:34.483Z,20.88
2023-06-23T21:08:03.016Z,20.90
2023-06-23T21:10:31.495Z,20.89
2023-06-23T21:12:59.993Z,20.89
2023-06-23T21:15:28.410Z,20.87
2023-06-23T21:17:57.755Z,20.90
2023-06-23T21:23:16.076Z,20.87
2023-06-23T21:25:45.677Z,20.83
2023-06-23T21:28:14.145Z,20.82
2023-06-23T21:30:42.775Z,20.80
2023-06-23T21:33:11.319Z,20.81
2023-06-23T21:35:41.879Z,20.79
2023-06-23T21:38:11.651Z,20.84
2023-06-23T21:40:42.608Z,20.90
2023-06-23T21:43:12.479Z,20.91
2023-06-23T21:45:40.959Z,20.85
2023-06-23T21:48:09.376Z,20.86
2023-06-23T21:50:37.974Z,20.81
2023-06-23T21:53:10.215Z,20.74
2023-06-23T21:55:38.823Z,20.69
2023-06-23T21:58:08.134Z,20.68
2023-06-23T22:00:37.032Z,20.68
2023-06-23T22:03:06.017Z,20.79
2023-06-23T22:05:34.480Z,20.80
2023-06-23T22:08:02.777Z,20.80
2023-06-23T22:10:32.962Z,20.76
2023-06-23T22:13:04.375Z,20.70
2023-06-23T22:15:32.861Z,20.69
2023-06-23T22:18:01.392Z,20.66
2023-06-23T22:20:29.873Z,20.64
2023-06-23T22:22:58.342Z,20.65
2023-06-23T22:25:26.796Z,20.58
2023-06-23T22:27:56.566Z,20.58
2023-06-23T22:30:24.895Z,20.54
2023-06-23T22:32:53.334Z,20.55
2023-06-23T22:35:22.616Z,20.54
2023-06-23T22:37:54.042Z,20.56
2023-06-23T22:40:22.360Z,20.53
2023-06-23T22:42:50.774Z,20.51
2023-06-23T22:45:20.782Z,20.45
2023-06-23T22:47:49.432Z,20.45
2023-06-23T22:50:18.077Z,20.40
2023-06-23T22:52:46.770Z,20.41
2023-06-23T22:55:15.807Z,20.35
2023-06-23T22:57:44.578Z,20.33
2023-06-23T23:00:14.459Z,20.33
2023-06-23T23:02:44.439Z,20.34
2023-06-23T23:05:15.826Z,20.29
2023-06-23T23:07:46.660Z,20.24
2023-06-23T23:10:15.341Z,20.21
2023-06-23T23:12:44.700Z,20.18
2023-06-23T23:15:13.329Z,20.21
2023-06-23T23:17:41.828Z,20.18
2023-06-23T23:20:12.822Z,20.15
2023-06-23T23:22:41.683Z,20.16
2023-06-23T23:25:11.280Z,20.12
2023-06-23T23:27:39.751Z,20.08
2023-06-23T23:30:09.665Z,19.99
2023-06-23T23:32:39.627Z,19.93
2023-06-23T23:35:11.634Z,19.89
2023-06-23T23:37:42.239Z,19.80
2023-06-23T23:40:12.521Z,19.68
2023-06-23T23:42:41.128Z,19.57
2023-06-23T23:45:10.409Z,19.54
2023-06-23T23:47:38.902Z,19.45
2023-06-23T23:50:09.337Z,19.40
2023-06-23T23:52:37.775Z,19.34
2023-06-23T23:55:08.034Z,19.36
2023-06-23T23:57:36.742Z,19.34
